KJST 230758Z 2308/2406 32012G22KT P6SM SCT018
FM231400 33015G26KT P6SM SCT035
FM240100 32007KT P6SM SKC
From batch tds/tafs/production/2022/9/23/h07_m59_tafs.cache.xml
Issued (9 days ago)
Forecasts
2308/2314 32012G22KT P6SM SCT1800

---
fcst_time_to: '2022-09-23T14:00:00Z'
wind_gust_kt: '22'
sky_condition:
- sky_cover: SCT
  cloud_base_ft_agl: '1800'
wind_speed_kt: '12'
fcst_time_from: '2022-09-23T08:00:00Z'
wind_dir_degrees: '320'
visibility_statute_mi: '6.21'

FM231400 33015G26KT P6SM SCT3500

---
fcst_time_to: '2022-09-24T01:00:00Z'
wind_gust_kt: '26'
sky_condition:
- sky_cover: SCT
  cloud_base_ft_agl: '3500'
wind_speed_kt: '15'
fcst_time_from: '2022-09-23T14:00:00Z'
change_indicator: FM
wind_dir_degrees: '330'
visibility_statute_mi: '6.21'

FM240100 32007KT P6SM SKC

---
fcst_time_to: '2022-09-24T06:00:00Z'
sky_condition:
- sky_cover: SKC
wind_speed_kt: '7'
fcst_time_from: '2022-09-24T01:00:00Z'
change_indicator: FM
wind_dir_degrees: '320'
visibility_statute_mi: '6.21'

talk